Time;durP1;ratioP1;P1;durP2;ratioP2;P2;SDS_P1;SDS_P2;PMS_P1;PMS_P2;Temp;Humidity;BMP_temperature;BMP_pressure;BME280_temperature;BME280_humidity;BME280_pressure;Samples;Min_cycle;Max_cycle;Signal;HPM_P1;HPM_P2
2022/07/07 00:01:24;;;;;;;;;;;;;;;16.69;64.97;99803.28;6103268;23;1266;-93
2022/07/07 00:03:51;;;;;;;;;;;;;;;16.69;64.99;99800.56;6127918;23;1319;-93
2022/07/07 00:06:17;;;;;;;;;;;;;;;16.68;64.98;99798.97;6129431;23;1116;-93
2022/07/07 00:08:44;;;;;;;;;;;;;;;16.66;64.94;99796.50;6128233;23;1216;-93
2022/07/07 00:11:10;;;;;;;;;;;;;;;16.67;65.01;99802.75;6129187;23;1108;-92
2022/07/07 00:13:37;;;;;;;;;;;;;;;16.65;64.99;99800.31;6103246;23;1277;-92
2022/07/07 00:16:03;;;;;;;;;;;;;;;16.66;64.87;99801.94;6128142;23;1240;-93
2022/07/07 00:18:30;;;;;;;;;;;;;;;16.65;64.94;99803.03;6128121;23;1908;-93
2022/07/07 00:20:56;;;;;;;;;;;;;;;16.64;64.92;99809.56;6127793;23;1186;-93
2022/07/07 00:23:22;;;;;;;;;;;;;;;16.63;64.91;99797.06;6127526;23;1148;-92
2022/07/07 00:25:49;;;;;;;;;;;;;;;16.63;64.89;99799.78;6127952;23;1132;-93
2022/07/07 00:28:15;;;;;;;;;;;;;;;16.63;64.88;99804.41;6103716;23;1173;-93
2022/07/07 00:30:42;;;;;;;;;;;;;;;16.63;64.86;99793.53;6104181;23;1173;-92
2022/07/07 00:33:08;;;;;;;;;;;;;;;16.62;64.79;99795.44;6128106;23;1365;-93
2022/07/07 00:35:34;;;;;;;;;;;;;;;16.61;64.69;99791.09;6127739;23;1259;-93
2022/07/07 00:38:01;;;;;;;;;;;;;;;16.62;64.84;99802.75;6127802;23;1948;-93
2022/07/07 00:40:27;;;;;;;;;;;;;;;16.60;64.84;99789.47;6128162;23;1154;-93
2022/07/07 00:42:53;;;;;;;;;;;;;;;16.59;64.73;99790.56;6127761;23;1299;-93
2022/07/07 00:45:21;;;;;;;;;;;;;;;16.59;64.78;99796.00;6127813;23;1112;-93
2022/07/07 00:47:52;;;;;;;;;;;;;;;16.57;64.87;99788.13;6128023;23;1176;-93
2022/07/07 00:50:18;;;;;;;;;;;;;;;16.58;64.79;99788.91;6127644;23;1269;-93
2022/07/07 00:52:44;;;;;;;;;;;;;;;16.56;64.63;99786.50;6127797;23;1279;-93
2022/07/07 00:55:11;;;;;;;;;;;;;;;16.57;64.82;99790.03;6127631;23;1713;-92
2022/07/07 00:57:37;;;;;;;;;;;;;;;16.55;64.80;99782.13;6127753;23;1905;-93
2022/07/07 01:00:04;;;;;;;;;;;;;;;16.56;64.70;99785.69;6127236;23;1270;-93
2022/07/07 01:02:30;;;;;;;;;;;;;;;16.56;64.70;99785.69;6127205;23;1212;-93
2022/07/07 01:04:57;;;;;;;;;;;;;;;16.55;64.74;99773.16;6127362;23;1296;-92
2022/07/07 01:07:23;;;;;;;;;;;;;;;16.54;64.72;99785.13;6128663;23;1120;-92
2022/07/07 01:09:49;;;;;;;;;;;;;;;16.53;64.74;99780.78;6103222;23;1296;-93
2022/07/07 01:12:16;;;;;;;;;;;;;;;16.53;64.73;99781.63;6127578;23;1153;-93
2022/07/07 01:14:42;;;;;;;;;;;;;;;16.52;64.79;99768.28;6102765;23;1187;-92
2022/07/07 01:17:08;;;;;;;;;;;;;;;16.52;64.63;99773.72;6127779;23;1940;-92
2022/07/07 01:19:35;;;;;;;;;;;;;;;16.51;64.71;99769.38;6127514;23;1184;-92
2022/07/07 01:22:01;;;;;;;;;;;;;;;16.51;64.78;99770.19;6127853;23;1274;-92
2022/07/07 01:24:28;;;;;;;;;;;;;;;16.51;64.65;99774.81;6102816;23;1353;-92
2022/07/07 01:26:54;;;;;;;;;;;;;;;16.50;64.72;99784.88;6127511;23;1224;-93
2022/07/07 01:29:20;;;;;;;;;;;;;;;16.49;64.71;99780.53;6127214;23;1335;-93
2022/07/07 01:31:47;;;;;;;;;;;;;;;16.49;64.75;99782.44;6127402;23;1161;-92
2022/07/07 01:34:13;;;;;;;;;;;;;;;16.49;64.79;99779.72;6127340;23;1255;-92
2022/07/07 01:36:39;;;;;;;;;;;;;;;16.49;64.66;99779.72;6127347;23;1302;-93
2022/07/07 01:39:06;;;;;;;;;;;;;;;16.47;64.68;99781.88;6127529;23;1956;-92
2022/07/07 01:41:32;;;;;;;;;;;;;;;16.48;64.78;99783.53;6127398;23;1299;-92
2022/07/07 01:43:58;;;;;;;;;;;;;;;16.47;64.68;99784.59;6127076;23;1177;-92
2022/07/07 01:46:25;;;;;;;;;;;;;;;16.47;64.59;99795.47;6127344;23;1247;-92
2022/07/07 01:48:51;;;;;;;;;;;;;;;16.45;64.62;99792.25;6127778;23;1269;-93
2022/07/07 01:51:17;;;;;;;;;;;;;;;16.45;64.62;99784.09;6127292;23;1243;-93
2022/07/07 01:53:44;;;;;;;;;;;;;;;16.45;64.60;99781.38;6103162;23;1241;-93
2022/07/07 01:56:10;;;;;;;;;;;;;;;16.44;64.59;99780.56;6128843;23;764;-93
2022/07/07 01:58:37;;;;;;;;;;;;;;;16.44;64.66;99783.28;6127186;23;1905;-93
2022/07/07 02:01:03;;;;;;;;;;;;;;;16.44;64.56;99782.44;6136756;23;1365;-92
2022/07/07 02:03:30;;;;;;;;;;;;;;;16.42;64.59;99788.16;6097605;23;1244;-93
2022/07/07 02:05:56;;;;;;;;;;;;;;;16.43;64.59;99791.69;6097855;23;1333;-93
2022/07/07 02:08:23;;;;;;;;;;;;;;;16.41;64.71;99788.44;6098393;23;1321;-93
2022/07/07 02:13:33;;;;;;;;;;;;;;;16.42;64.60;99795.50;6100010;23;1281;-93
2022/07/07 02:15:59;;;;;;;;;;;;;;;16.39;64.63;99805.03;6099559;23;1275;-93
2022/07/07 02:18:26;;;;;;;;;;;;;;;16.40;64.54;99803.13;6100850;23;1949;-93
2022/07/07 02:20:52;;;;;;;;;;;;;;;16.39;64.59;99813.19;6099554;23;1295;-92
2022/07/07 02:23:18;;;;;;;;;;;;;;;16.40;64.63;99811.28;6124239;23;1266;-93
2022/07/07 02:25:45;;;;;;;;;;;;;;;16.39;64.57;99812.38;6099591;23;1127;-93
2022/07/07 02:28:11;;;;;;;;;;;;;;;16.38;64.54;99810.72;6099725;23;1245;-92
2022/07/07 02:30:37;;;;;;;;;;;;;;;16.37;64.61;99809.91;6124211;23;1268;-93
2022/07/07 02:33:04;;;;;;;;;;;;;;;16.37;64.48;99815.34;6099353;23;1243;-92
2022/07/07 02:35:30;;;;;;;;;;;;;;;16.36;64.47;99813.75;6100003;23;1248;-93
2022/07/07 02:37:57;;;;;;;;;;;;;;;16.37;64.57;99815.34;6099898;23;1902;-93
2022/07/07 02:40:23;;;;;;;;;;;;;;;16.37;64.47;99819.97;6099235;23;1282;-93
2022/07/07 02:42:49;;;;;;;;;;;;;;;16.35;64.48;99818.38;6099734;23;1372;-93
2022/07/07 02:45:16;;;;;;;;;;;;;;;16.34;64.51;99819.44;6099885;23;1253;-93
2022/07/07 02:47:42;;;;;;;;;;;;;;;16.34;64.48;99819.44;6099467;23;1186;-93
2022/07/07 02:50:09;;;;;;;;;;;;;;;16.35;64.44;99823.78;6099341;23;1137;-92
2022/07/07 02:52:35;;;;;;;;;;;;;;;16.33;64.57;99834.13;6099134;23;1341;-93
2022/07/07 02:55:01;;;;;;;;;;;;;;;16.33;64.46;99830.59;6099174;23;1202;-93
2022/07/07 02:57:28;;;;;;;;;;;;;;;16.31;64.45;99822.69;6099377;23;1905;-92
2022/07/07 02:59:54;;;;;;;;;;;;;;;16.32;64.40;99831.66;6104175;23;1241;-93
2022/07/07 03:02:20;;;;;;;;;;;;;;;16.32;64.42;99835.22;6128609;23;1184;-92
2022/07/07 03:04:47;;;;;;;;;;;;;;;16.32;64.45;99842.53;6129931;23;1112;-93
2022/07/07 03:07:13;;;;;;;;;;;;;;;16.31;64.43;99835.47;6104890;23;1206;-93
2022/07/07 03:09:40;;;;;;;;;;;;;;;16.31;64.39;99838.19;6103965;23;1261;-93
2022/07/07 03:12:06;;;;;;;;;;;;;;;16.30;64.34;99848.25;6128359;23;1224;-93
2022/07/07 03:14:33;;;;;;;;;;;;;;;16.29;64.26;99849.31;6103883;23;1142;-93
2022/07/07 03:16:59;;;;;;;;;;;;;;;16.29;64.34;99845.78;6104164;23;1200;-93
2022/07/07 03:19:25;;;;;;;;;;;;;;;16.28;64.32;99850.41;6103694;23;1927;-93
2022/07/07 03:21:52;;;;;;;;;;;;;;;16.27;64.36;99851.53;6103969;23;1154;-93
2022/07/07 03:24:18;;;;;;;;;;;;;;;16.26;64.39;99855.31;6103933;23;1307;-93
2022/07/07 03:26:44;;;;;;;;;;;;;;;16.26;64.38;99857.22;6129991;23;1020;-93
2022/07/07 03:29:11;;;;;;;;;;;;;;;16.25;64.39;99852.88;6104281;23;1177;-93
2022/07/07 03:31:37;;;;;;;;;;;;;;;16.26;64.30;99865.38;6103892;23;1300;-93
2022/07/07 03:34:03;;;;;;;;;;;;;;;16.24;64.39;99876.53;6103527;23;1253;-93
2022/07/07 03:36:30;;;;;;;;;;;;;;;16.24;64.32;99876.53;6129430;23;823;-92
2022/07/07 03:38:56;;;;;;;;;;;;;;;16.24;64.30;99879.25;6103758;23;1909;-93
2022/07/07 03:41:22;;;;;;;;;;;;;;;16.23;64.47;99874.06;6103622;23;1241;-92
2022/07/07 03:43:49;;;;;;;;;;;;;;;16.22;64.41;99881.41;6104093;23;1256;-93
2022/07/07 03:46:15;;;;;;;;;;;;;;;16.21;64.39;99892.56;6128467;23;1247;-93
2022/07/07 03:48:42;;;;;;;;;;;;;;;16.20;64.36;99894.44;6104435;23;1316;-92
2022/07/07 03:51:08;;;;;;;;;;;;;;;16.21;64.36;99895.28;6103576;23;1212;-93
2022/07/07 03:53:35;;;;;;;;;;;;;;;16.20;64.40;99902.59;6103765;23;1281;-93
2022/07/07 03:56:01;;;;;;;;;;;;;;;16.20;64.34;99901.78;6103578;23;1308;-92
2022/07/07 03:58:27;;;;;;;;;;;;;;;16.19;64.43;99902.88;6103668;23;1927;-93
2022/07/07 04:00:53;;;;;;;;;;;;;;;16.19;64.38;99894.72;6103266;23;1406;-93
2022/07/07 04:03:20;;;;;;;;;;;;;;;16.18;64.14;99899.34;6103209;23;1360;-93
2022/07/07 04:05:46;;;;;;;;;;;;;;;16.17;64.41;99905.84;6103317;23;1159;-93
2022/07/07 04:08:13;;;;;;;;;;;;;;;16.16;64.32;99912.38;6103877;23;1303;-93
2022/07/07 04:10:39;;;;;;;;;;;;;;;16.16;64.28;99917.81;6103470;23;1266;-92
2022/07/07 04:13:07;;;;;;;;;;;;;;;16.16;64.22;99925.16;6103867;23;1180;-92
2022/07/07 04:15:34;;;;;;;;;;;;;;;16.15;64.37;99931.66;6129642;23;1075;-93
2022/07/07 04:18:03;;;;;;;;;;;;;;;16.15;64.34;99931.66;6103408;23;1949;-93
2022/07/07 04:20:30;;;;;;;;;;;;;;;16.12;64.35;99939.28;6103536;23;1198;-92
2022/07/07 04:22:56;;;;;;;;;;;;;;;16.12;64.32;99943.91;6103078;23;1283;-93
2022/07/07 04:25:23;;;;;;;;;;;;;;;16.11;64.25;99940.34;6103457;23;1129;-93
2022/07/07 04:27:49;;;;;;;;;;;;;;;16.11;64.34;99948.50;6103549;23;1225;-93
2022/07/07 04:30:16;;;;;;;;;;;;;;;16.11;64.38;99955.84;6103787;23;1297;-92
2022/07/07 04:32:42;;;;;;;;;;;;;;;16.11;64.21;99961.28;6102917;23;1335;-92
2022/07/07 04:35:09;;;;;;;;;;;;;;;16.10;64.24;99965.88;6103486;23;1257;-92
2022/07/07 04:37:35;;;;;;;;;;;;;;;16.10;64.33;99965.09;6103221;23;1922;-92
2022/07/07 04:40:02;;;;;;;;;;;;;;;16.11;64.21;99972.13;6103742;23;1346;-92
2022/07/07 04:42:29;;;;;;;;;;;;;;;16.08;64.25;99970.78;6103480;23;1254;-93
2022/07/07 04:44:55;;;;;;;;;;;;;;;16.10;64.26;99973.22;6103212;23;1164;-92
2022/07/07 04:47:21;;;;;;;;;;;;;;;16.08;64.31;99978.91;6129177;23;1179;-92
2022/07/07 04:49:48;;;;;;;;;;;;;;;16.07;64.32;99990.06;6128002;23;1272;-92
2022/07/07 04:52:14;;;;;;;;;;;;;;;16.06;64.28;99989.25;6102837;23;1210;-93
2022/07/07 04:54:40;;;;;;;;;;;;;;;16.06;64.26;99994.69;6103337;23;1255;-92
2022/07/07 04:57:07;;;;;;;;;;;;;;;16.07;64.23;99992.78;6103124;23;1138;-93
2022/07/07 04:59:33;;;;;;;;;;;;;;;16.06;64.20;99996.56;6102685;23;1958;-92
2022/07/07 05:01:59;;;;;;;;;;;;;;;16.05;64.24;100003.09;6103043;23;1142;-92
2022/07/07 05:04:26;;;;;;;;;;;;;;;16.05;64.20;100009.34;6103156;23;1317;-92
2022/07/07 05:06:52;;;;;;;;;;;;;;;16.04;64.24;100006.91;6103287;23;1188;-93
2022/07/07 05:09:19;;;;;;;;;;;;;;;16.05;64.20;100013.97;6103183;23;1235;-93
2022/07/07 05:11:45;;;;;;;;;;;;;;;16.04;64.16;100017.78;6103329;23;1182;-92
2022/07/07 05:14:11;;;;;;;;;;;;;;;16.03;64.16;100013.41;6103036;23;1153;-92
2022/07/07 05:16:38;;;;;;;;;;;;;;;16.03;64.16;100013.41;6102970;23;1357;-92
2022/07/07 05:19:04;;;;;;;;;;;;;;;16.02;64.19;100019.94;6102881;23;1901;-92
2022/07/07 05:21:30;;;;;;;;;;;;;;;16.02;64.05;100025.34;6103161;23;1217;-93
2022/07/07 05:23:57;;;;;;;;;;;;;;;16.02;64.12;100022.66;6103110;23;1263;-93
2022/07/07 05:26:23;;;;;;;;;;;;;;;16.02;64.14;100033.50;6127793;23;1241;-93
2022/07/07 05:28:50;;;;;;;;;;;;;;;16.01;64.10;100040.03;6128744;23;1080;-92
2022/07/07 05:31:16;;;;;;;;;;;;;;;16.01;64.15;100053.63;6103077;23;1252;-92
2022/07/07 05:33:43;;;;;;;;;;;;;;;16.01;64.18;100054.44;6102798;23;1262;-92
2022/07/07 05:36:10;;;;;;;;;;;;;;;16.01;64.11;100054.44;6102850;23;1189;-93
2022/07/07 05:38:36;;;;;;;;;;;;;;;16.00;64.12;100058.22;6127434;23;1905;-92
2022/07/07 05:41:03;;;;;;;;;;;;;;;16.00;64.07;100062.81;6103235;23;1209;-93
2022/07/07 05:43:29;;;;;;;;;;;;;;;15.99;64.08;100070.16;6127468;23;1176;-93
2022/07/07 05:45:56;;;;;;;;;;;;;;;15.99;64.08;100078.31;6105097;23;1398;-92
2022/07/07 05:48:22;;;;;;;;;;;;;;;15.97;64.14;100077.78;6104691;23;1329;-92
2022/07/07 05:50:48;;;;;;;;;;;;;;;15.99;64.15;100086.47;6105115;23;1461;-93
2022/07/07 05:53:15;;;;;;;;;;;;;;;15.98;64.10;100086.75;6104723;23;1189;-92
2022/07/07 05:55:41;;;;;;;;;;;;;;;15.96;64.07;100092.41;6105655;23;1215;-92
2022/07/07 05:58:07;;;;;;;;;;;;;;;15.98;64.19;100098.41;6130310;23;1897;-93
2022/07/07 06:00:34;;;;;;;;;;;;;;;15.97;64.12;100107.66;6104649;23;1287;-92
2022/07/07 06:03:00;;;;;;;;;;;;;;;15.96;64.00;100111.44;6104339;23;1310;-92
2022/07/07 06:05:27;;;;;;;;;;;;;;;15.96;63.97;100111.44;6104975;23;1193;-92
2022/07/07 06:07:53;;;;;;;;;;;;;;;15.96;64.12;100107.91;6104464;23;1226;-92
2022/07/07 06:10:19;;;;;;;;;;;;;;;15.95;64.05;100117.97;6129179;23;1307;-92
2022/07/07 06:12:46;;;;;;;;;;;;;;;15.96;64.00;100125.00;6104432;23;1568;-92
2022/07/07 06:15:12;;;;;;;;;;;;;;;15.95;63.98;100126.09;6105428;23;1232;-93
2022/07/07 06:17:39;;;;;;;;;;;;;;;15.95;63.96;100133.44;6104880;23;1160;-93
2022/07/07 06:20:06;;;;;;;;;;;;;;;15.95;63.98;100138.88;6105098;23;1909;-92
2022/07/07 06:22:32;;;;;;;;;;;;;;;15.96;64.06;100143.22;6104907;23;1251;-92
2022/07/07 06:24:59;;;;;;;;;;;;;;;15.94;64.04;100138.03;6104847;23;1140;-91
2022/07/07 06:27:25;;;;;;;;;;;;;;;15.94;64.02;100138.03;6104562;23;1147;-92
2022/07/07 06:29:51;;;;;;;;;;;;;;;15.95;64.03;100150.56;6104294;23;1260;-92
2022/07/07 06:32:18;;;;;;;;;;;;;;;15.94;63.97;100151.59;6129908;23;779;-92
2022/07/07 06:34:44;;;;;;;;;;;;;;;15.95;63.89;100163.31;6104371;23;1189;-92
2022/07/07 06:37:10;;;;;;;;;;;;;;;15.94;63.90;100157.03;6104401;23;1181;-92
2022/07/07 06:39:37;;;;;;;;;;;;;;;15.93;63.94;100158.13;6104097;23;1944;-92
2022/07/07 06:42:03;;;;;;;;;;;;;;;15.94;63.85;100162.47;6104706;23;1244;-92
2022/07/07 06:44:31;;;;;;;;;;;;;;;15.94;63.94;100165.19;6104450;23;1147;-92
2022/07/07 06:46:57;;;;;;;;;;;;;;;15.94;63.91;100177.97;6104511;23;1234;-92
2022/07/07 06:49:23;;;;;;;;;;;;;;;15.95;63.84;100187.75;6104286;23;1135;-92
2022/07/07 06:51:50;;;;;;;;;;;;;;;15.94;63.85;100188.81;6104259;23;1459;-92
2022/07/07 06:54:16;;;;;;;;;;;;;;;15.95;63.87;100191.28;6128660;23;1200;-92
2022/07/07 06:56:42;;;;;;;;;;;;;;;15.95;63.80;100196.72;6104200;23;1141;-92
2022/07/07 06:59:09;;;;;;;;;;;;;;;15.94;63.83;100200.50;6104072;23;1894;-92
2022/07/07 07:01:35;;;;;;;;;;;;;;;15.95;63.85;100213.00;6104444;23;1329;-92
2022/07/07 07:04:01;;;;;;;;;;;;;;;15.95;63.84;100215.72;6103863;23;1171;-92
2022/07/07 07:06:28;;;;;;;;;;;;;;;15.95;63.84;100214.91;6104670;23;1292;-92
2022/07/07 07:08:55;;;;;;;;;;;;;;;15.95;nan;100214.91;6128726;23;1161;-92
2022/07/07 07:11:21;;;;;;;;;;;;;;;15.96;63.84;100217.34;6104071;23;723;-92
2022/07/07 07:13:48;;;;;;;;;;;;;;;15.96;63.70;100225.50;6103937;23;1444;-92
2022/07/07 07:16:14;;;;;;;;;;;;;;;15.96;63.68;100220.06;6104344;23;1255;-92
2022/07/07 07:18:40;;;;;;;;;;;;;;;15.98;63.64;100236.13;6128626;23;1897;-92
2022/07/07 07:21:07;;;;;;;;;;;;;;;15.98;63.73;100238.84;6129992;23;925;-92
2022/07/07 07:23:33;;;;;;;;;;;;;;;15.97;63.75;100245.31;6103526;23;1258;-92
2022/07/07 07:25:59;;;;;;;;;;;;;;;15.97;63.64;100256.19;6104238;23;1183;-92
2022/07/07 07:28:26;;;;;;;;;;;;;;;15.97;63.66;100250.75;6103818;23;1111;-92
2022/07/07 07:30:52;;;;;;;;;;;;;;;15.97;63.72;100257.03;6104323;23;1230;-92
2022/07/07 07:33:19;;;;;;;;;;;;;;;15.99;63.62;100265.72;6128572;23;1172;-91
2022/07/07 07:35:45;;;;;;;;;;;;;;;15.98;63.61;100264.09;6128603;23;1198;-92
2022/07/07 07:38:11;;;;;;;;;;;;;;;15.99;63.61;100264.91;6103605;23;1246;-92
2022/07/07 07:40:38;;;;;;;;;;;;;;;15.99;63.66;100270.34;6104044;23;1910;-92
2022/07/07 07:43:04;;;;;;;;;;;;;;;16.00;63.66;100274.66;6103300;23;1223;-92
2022/07/07 07:45:30;;;;;;;;;;;;;;;16.00;63.61;100278.22;6103716;23;1177;-92
2022/07/07 07:47:57;;;;;;;;;;;;;;;16.01;63.53;100284.47;6103708;23;1238;-91
2022/07/07 07:50:23;;;;;;;;;;;;;;;16.00;63.56;100289.09;6103856;23;1140;-92
2022/07/07 07:52:50;;;;;;;;;;;;;;;16.01;63.54;100290.72;6103499;23;1202;-92
2022/07/07 07:55:16;;;;;;;;;;;;;;;16.01;63.53;100300.78;6128534;23;1285;-92
2022/07/07 07:57:42;;;;;;;;;;;;;;;16.01;63.58;100295.34;6128589;23;1244;-92
2022/07/07 08:00:09;;;;;;;;;;;;;;;16.02;63.50;100299.69;6103389;23;1939;-92
2022/07/07 08:02:35;;;;;;;;;;;;;;;16.03;63.56;100301.31;6103237;23;1152;-92
2022/07/07 08:05:02;;;;;;;;;;;;;;;16.02;63.52;100305.13;6103395;23;1296;-92
2022/07/07 08:07:29;;;;;;;;;;;;;;;16.02;63.63;100318.69;6103500;23;1265;-92
2022/07/07 08:09:55;;;;;;;;;;;;;;;16.03;63.67;100325.75;6103826;23;1173;-92
2022/07/07 08:12:21;;;;;;;;;;;;;;;16.02;63.67;100321.41;6103825;23;1322;-92
2022/07/07 08:14:48;;;;;;;;;;;;;;;16.02;63.61;100324.13;6103314;23;1118;-92
2022/07/07 08:17:14;;;;;;;;;;;;;;;16.03;63.64;100332.03;6103498;23;1430;-92
2022/07/07 08:19:40;;;;;;;;;;;;;;;16.02;63.56;100333.09;6103638;23;1905;-92
2022/07/07 08:22:07;;;;;;;;;;;;;;;16.02;63.68;100335.81;6129228;23;1016;-91
2022/07/07 08:24:33;;;;;;;;;;;;;;;16.03;63.58;100333.91;6103564;23;1257;-92
2022/07/07 08:26:59;;;;;;;;;;;;;;;16.03;63.65;100334.75;6129072;23;1096;-92
2022/07/07 08:29:26;;;;;;;;;;;;;;;16.02;63.60;100333.09;6103532;23;1165;-92
2022/07/07 08:31:52;;;;;;;;;;;;;;;16.02;63.61;100333.09;6103535;23;1161;-92
2022/07/07 08:34:18;;;;;;;;;;;;;;;16.04;63.59;100338.28;6102968;23;1172;-92
2022/07/07 08:36:45;;;;;;;;;;;;;;;16.04;63.62;100349.16;6103567;23;1256;-92
2022/07/07 08:39:11;;;;;;;;;;;;;;;16.04;63.72;100349.16;6103211;23;1939;-92
2022/07/07 08:41:37;;;;;;;;;;;;;;;16.05;63.71;100345.34;6103583;23;1285;-92
2022/07/07 08:44:04;;;;;;;;;;;;;;;16.05;63.66;100342.63;6102929;23;1114;-92
2022/07/07 08:46:30;;;;;;;;;;;;;;;16.05;63.62;100353.47;6103483;23;1117;-92
2022/07/07 08:48:56;;;;;;;;;;;;;;;16.05;63.60;100353.47;6129240;23;1060;-92
2022/07/07 08:51:23;;;;;;;;;;;;;;;16.04;63.71;100360.81;6103149;23;1174;-92
2022/07/07 08:53:49;;;;;;;;;;;;;;;16.06;63.59;100363.25;6103261;23;1201;-92
2022/07/07 08:56:15;;;;;;;;;;;;;;;16.04;63.34;100362.72;6103444;23;1304;-92
2022/07/07 08:58:42;;;;;;;;;;;;;;;16.05;63.49;100365.16;6102881;23;1952;-92
2022/07/07 09:01:08;;;;;;;;;;;;;;;16.06;63.66;100374.97;6102777;23;1235;-92
2022/07/07 09:03:35;;;;;;;;;;;;;;;16.06;63.74;100374.97;6102924;23;1133;-91
2022/07/07 09:06:01;;;;;;;;;;;;;;;16.07;63.81;100373.06;6103149;23;1336;-92
2022/07/07 09:08:27;;;;;;;;;;;;;;;16.08;63.83;100377.41;6103051;23;1142;-92
2022/07/07 09:10:53;;;;;;;;;;;;;;;16.08;63.87;100377.41;6103339;23;1225;-92
2022/07/07 09:13:20;;;;;;;;;;;;;;;16.08;63.79;100380.13;6102862;23;1256;-92
2022/07/07 09:15:46;;;;;;;;;;;;;;;16.08;63.83;100375.50;6103263;23;1183;-92
2022/07/07 09:18:12;;;;;;;;;;;;;;;16.09;63.77;100379.88;6102821;23;1240;-92
2022/07/07 09:20:39;;;;;;;;;;;;;;;16.10;63.71;100377.97;6102964;23;1909;-92
2022/07/07 09:23:05;;;;;;;;;;;;;;;16.10;nan;100378.78;6102702;23;1362;-92
2022/07/07 09:25:32;;;;;;;;;;;;;;;16.10;63.87;100386.94;6103064;23;755;-92
2022/07/07 09:27:58;;;;;;;;;;;;;;;16.10;63.61;100378.78;6128562;23;1128;-91
2022/07/07 09:30:24;;;;;;;;;;;;;;;16.11;63.84;100385.84;6103154;23;1149;-92
2022/07/07 09:32:51;;;;;;;;;;;;;;;16.10;63.89;100389.66;6102586;23;1276;-92
2022/07/07 09:38:13;;;;;;;;;;;;;;;16.11;63.97;100394.00;6128807;23;798;-92
2022/07/07 09:38:15;;;;;;;;;;;;;;;16.12;63.92;100390.22;6102909;23;1352;-92
2022/07/07 09:40:42;;;;;;;;;;;;;;;16.13;63.69;100393.75;6102731;23;1913;-92
2022/07/07 09:43:08;;;;;;;;;;;;;;;16.13;63.41;100389.13;6128281;23;1115;-92
2022/07/07 09:45:34;;;;;;;;;;;;;;;16.15;63.76;100393.47;6102780;23;1149;-92
2022/07/07 09:48:01;;;;;;;;;;;;;;;16.15;63.93;100388.88;6102791;23;1157;-92
2022/07/07 09:50:27;;;;;;;;;;;;;;;16.15;63.72;100388.03;6102797;23;1180;-92
2022/07/07 09:52:53;;;;;;;;;;;;;;;16.16;63.93;100387.00;6103131;23;1289;-92
2022/07/07 09:55:20;;;;;;;;;;;;;;;16.16;64.02;100395.13;6102616;23;1282;-92
2022/07/07 09:57:46;;;;;;;;;;;;;;;16.16;63.47;100404.09;6103461;23;1184;-92
2022/07/07 10:00:13;;;;;;;;;;;;;;;16.17;63.52;100397.56;6102626;23;1940;-92
2022/07/07 10:02:39;;;;;;;;;;;;;;;16.17;64.03;100403.00;6102934;23;1233;-92
2022/07/07 10:05:05;;;;;;;;;;;;;;;16.18;63.92;100410.09;6102586;23;1265;-92
2022/07/07 10:07:32;;;;;;;;;;;;;;;16.19;63.76;100403.59;6102966;23;1220;-92
2022/07/07 10:09:58;;;;;;;;;;;;;;;16.19;63.57;100414.44;6102770;23;1397;-92
2022/07/07 10:12:25;;;;;;;;;;;;;;;16.20;63.74;100412.53;6128459;23;783;-92
2022/07/07 10:14:51;;;;;;;;;;;;;;;16.21;63.88;100422.34;6102679;23;1338;-92
2022/07/07 10:17:17;;;;;;;;;;;;;;;16.20;64.13;100417.97;6103156;23;1343;-92
2022/07/07 10:19:44;;;;;;;;;;;;;;;16.21;64.12;100422.34;6102814;23;1938;-93
2022/07/07 10:22:10;;;;;;;;;;;;;;;16.23;64.15;100414.75;6103097;23;1276;-92
2022/07/07 10:24:38;;;;;;;;;;;;;;;16.23;64.23;100406.59;6102891;23;1126;-92
2022/07/07 10:27:05;;;;;;;;;;;;;;;16.23;64.40;100415.56;6103038;23;1225;-92
2022/07/07 10:29:31;;;;;;;;;;;;;;;16.24;64.15;100416.41;6103818;23;1184;-92
2022/07/07 10:31:57;;;;;;;;;;;;;;;16.24;64.38;100411.78;6104514;23;1109;-92
2022/07/07 10:34:24;;;;;;;;;;;;;;;16.24;63.86;100411.78;6128701;23;1264;-92
2022/07/07 10:36:50;;;;;;;;;;;;;;;16.26;64.12;100417.75;6129071;23;1311;-92
2022/07/07 10:39:16;;;;;;;;;;;;;;;16.27;64.37;100418.59;6129531;23;1930;-92
2022/07/07 10:41:43;;;;;;;;;;;;;;;16.27;64.33;100427.56;6104659;23;1507;-92
2022/07/07 10:44:09;;;;;;;;;;;;;;;16.28;64.26;100426.47;6104124;23;1236;-92
2022/07/07 10:46:35;;;;;;;;;;;;;;;16.29;64.31;100427.28;6130043;23;1132;-93
2022/07/07 10:49:02;;;;;;;;;;;;;;;16.30;64.34;100424.31;6104856;23;1331;-92
2022/07/07 10:51:29;;;;;;;;;;;;;;;16.30;64.26;100427.03;6104379;23;1110;-92
2022/07/07 10:53:55;;;;;;;;;;;;;;;16.31;64.35;100423.22;6103854;23;1209;-93
2022/07/07 10:56:21;;;;;;;;;;;;;;;16.32;64.23;100435.75;6104126;23;1231;-92
2022/07/07 10:58:48;;;;;;;;;;;;;;;16.33;64.17;100434.66;6104595;23;1223;-93
2022/07/07 11:01:14;;;;;;;;;;;;;;;16.35;64.21;100437.09;6103778;23;1897;-92
2022/07/07 11:03:40;;;;;;;;;;;;;;;16.35;63.84;100439.81;6130054;23;1104;-93
2022/07/07 11:06:07;;;;;;;;;;;;;;;16.35;63.39;100440.66;6128506;23;1270;-92
2022/07/07 11:08:33;;;;;;;;;;;;;;;16.38;63.43;100443.94;6129842;23;1151;-92
2022/07/07 11:11:00;;;;;;;;;;;;;;;16.38;64.17;100446.63;6128474;23;1263;-92
2022/07/07 11:13:26;;;;;;;;;;;;;;;16.40;nan;100444.50;6104421;23;1288;-92
2022/07/07 11:15:52;;;;;;;;;;;;;;;16.41;63.94;100454.28;6129642;23;724;-93
2022/07/07 11:18:19;;;;;;;;;;;;;;;16.42;64.00;100455.94;6128799;23;1182;-93
2022/07/07 11:20:45;;;;;;;;;;;;;;;16.43;63.90;100457.56;6129420;23;1909;-92
2022/07/07 11:23:11;;;;;;;;;;;;;;;16.43;64.21;100461.09;6103718;23;1360;-92
2022/07/07 11:25:38;;;;;;;;;;;;;;;16.44;63.58;100465.47;6129616;23;1131;-92
2022/07/07 11:28:04;;;;;;;;;;;;;;;16.46;63.91;100462.47;6128439;23;1136;-92
2022/07/07 11:30:30;;;;;;;;;;;;;;;16.46;64.24;100457.84;6128518;23;1218;-93
2022/07/07 11:32:57;;;;;;;;;;;;;;;16.47;63.75;100458.66;6128392;23;1331;-93
2022/07/07 11:35:23;;;;;;;;;;;;;;;16.48;63.56;100463.84;6128704;23;1189;-93
2022/07/07 11:37:50;;;;;;;;;;;;;;;16.50;63.16;100469.00;6128432;23;1224;-92
2022/07/07 11:40:16;;;;;;;;;;;;;;;16.51;63.50;100470.69;6128163;23;1945;-93
2022/07/07 11:42:42;;;;;;;;;;;;;;;16.52;63.77;100472.31;6128215;23;1148;-92
2022/07/07 11:45:09;;;;;;;;;;;;;;;16.53;64.33;100474.78;6127992;23;1246;-93
2022/07/07 11:47:35;;;;;;;;;;;;;;;16.53;64.55;100476.66;6103927;23;1133;-93
2022/07/07 11:50:02;;;;;;;;;;;;;;;16.54;64.70;100465.53;6104241;23;1204;-92
2022/07/07 11:52:28;;;;;;;;;;;;;;;16.55;64.81;100471.78;6104040;23;1248;-93
2022/07/07 11:54:54;;;;;;;;;;;;;;;16.56;64.83;100470.72;6128477;23;1217;-92
2022/07/07 11:57:21;;;;;;;;;;;;;;;16.57;64.78;100475.06;6128442;23;1215;-93
2022/07/07 11:59:47;;;;;;;;;;;;;;;16.60;64.81;100484.59;6129652;23;1901;-93
2022/07/07 12:02:13;;;;;;;;;;;;;;;16.61;64.82;100484.31;6103785;23;1252;-93
2022/07/07 12:04:40;;;;;;;;;;;;;;;16.62;64.89;100493.28;6103890;23;1244;-93
2022/07/07 12:07:06;;;;;;;;;;;;;;;16.61;65.02;100495.19;6104022;23;1250;-92
2022/07/07 12:09:32;;;;;;;;;;;;;;;16.63;64.82;100500.38;6103383;23;1334;-93
2022/07/07 12:11:59;;;;;;;;;;;;;;;16.64;64.89;100496.59;6103651;23;1318;-93
2022/07/07 12:14:27;;;;;;;;;;;;;;;16.65;64.94;100499.06;6103355;23;1421;-93
2022/07/07 12:16:53;;;;;;;;;;;;;;;16.66;64.63;100491.72;6129579;23;842;-93
2022/07/07 12:19:20;;;;;;;;;;;;;;;16.67;64.18;100499.59;6103690;23;1174;-92
2022/07/07 12:21:47;;;;;;;;;;;;;;;16.68;64.12;100489.56;6103212;23;1913;-92
2022/07/07 12:24:13;;;;;;;;;;;;;;;16.69;64.57;100497.44;6103410;23;1341;-94
2022/07/07 12:26:40;;;;;;;;;;;;;;;16.71;64.15;100499.91;6104915;23;1275;-93
2022/07/07 12:29:06;;;;;;;;;;;;;;;16.72;64.34;100505.06;6129273;23;1104;-93
2022/07/07 12:31:33;;;;;;;;;;;;;;;16.74;64.42;100507.53;6103340;23;1251;-93
2022/07/07 12:33:59;;;;;;;;;;;;;;;16.73;64.48;100495.81;6129019;23;1072;-93
2022/07/07 12:36:25;;;;;;;;;;;;;;;16.76;64.80;100505.41;6103675;23;1391;-93
2022/07/07 12:38:52;;;;;;;;;;;;;;;16.77;65.01;100509.78;6103176;23;1225;-93
2022/07/07 12:41:18;;;;;;;;;;;;;;;16.76;65.01;100511.66;6103098;23;1947;-93
2022/07/07 12:43:44;;;;;;;;;;;;;;;16.79;65.06;100513.03;6103180;23;1239;-93
2022/07/07 12:46:11;;;;;;;;;;;;;;;16.79;64.53;100516.59;6127787;23;1212;-93
2022/07/07 12:48:37;;;;;;;;;;;;;;;16.82;64.49;100520.66;6103562;23;1245;-93